createdAt,value
2019-03-20T00:01:43.711Z,99.90
2019-03-20T00:04:09.668Z,99.90
2019-03-20T00:06:39.932Z,99.90
2019-03-20T00:09:09.616Z,99.90
2019-03-20T00:11:41.420Z,99.90
2019-03-20T00:14:12.195Z,99.90
2019-03-20T00:16:50.168Z,99.90
2019-03-20T00:19:19.960Z,99.90
2019-03-20T00:21:50.385Z,99.90
2019-03-20T00:24:20.679Z,99.90
2019-03-20T00:26:55.068Z,99.90
2019-03-20T00:29:24.908Z,99.90
2019-03-20T00:31:55.287Z,99.90
2019-03-20T00:34:26.119Z,99.90
2019-03-20T00:36:57.704Z,99.90
2019-03-20T00:39:31.970Z,99.90
2019-03-20T00:42:05.707Z,99.90
2019-03-20T00:44:37.341Z,99.90
2019-03-20T00:47:10.467Z,99.90
2019-03-20T00:49:43.512Z,99.90
2019-03-20T00:52:14.023Z,99.90
2019-03-20T00:54:44.476Z,99.90
2019-03-20T00:57:14.719Z,99.90
2019-03-20T00:59:53.052Z,99.90
2019-03-20T01:02:24.173Z,99.90
2019-03-20T01:04:53.860Z,99.90
2019-03-20T01:07:28.372Z,99.90
2019-03-20T01:09:59.503Z,99.90
2019-03-20T01:12:29.653Z,99.90
2019-03-20T01:14:58.476Z,99.90
2019-03-20T01:17:29.700Z,99.90
2019-03-20T01:20:04.488Z,99.90
2019-03-20T01:22:35.861Z,99.90
2019-03-20T01:25:06.607Z,99.90
2019-03-20T01:27:38.374Z,99.90
2019-03-20T01:30:09.321Z,99.90
2019-03-20T01:32:38.711Z,99.90
2019-03-20T01:35:23.469Z,99.90
2019-03-20T01:37:50.345Z,99.90
2019-03-20T01:40:21.727Z,99.90
2019-03-20T01:42:53.404Z,99.90
2019-03-20T01:45:23.029Z,99.90
2019-03-20T01:47:52.821Z,99.90
2019-03-20T01:50:22.360Z,99.90
2019-03-20T01:52:51.435Z,99.90
2019-03-20T01:55:22.395Z,99.90
2019-03-20T01:57:52.716Z,99.90
2019-03-20T02:00:23.866Z,99.90
2019-03-20T02:02:54.765Z,99.90
2019-03-20T02:05:35.336Z,99.90
2019-03-20T02:07:58.495Z,99.90
2019-03-20T02:10:32.193Z,99.90
2019-03-20T02:13:01.889Z,99.90
2019-03-20T02:15:38.969Z,99.90
2019-03-20T02:18:02.971Z,99.90
2019-03-20T02:20:33.733Z,99.90
2019-03-20T02:23:03.532Z,99.90
2019-03-20T02:25:37.660Z,99.90
2019-03-20T02:28:08.320Z,99.90
2019-03-20T02:30:39.938Z,99.90
2019-03-20T02:33:12.371Z,99.90
2019-03-20T02:35:52.035Z,99.90
2019-03-20T02:38:20.026Z,99.90
2019-03-20T02:40:49.602Z,99.90
2019-03-20T02:43:20.658Z,99.90
2019-03-20T02:45:50.644Z,99.90
2019-03-20T02:48:22.404Z,99.90
2019-03-20T02:51:06.030Z,99.90
2019-03-20T02:53:39.692Z,99.90
2019-03-20T02:56:09.297Z,99.90
2019-03-20T02:58:41.666Z,99.90
2019-03-20T03:01:10.543Z,99.90
2019-03-20T03:03:40.233Z,99.90
2019-03-20T03:06:11.147Z,99.90
2019-03-20T03:08:43.763Z,99.90
2019-03-20T03:11:15.504Z,99.90
2019-03-20T03:13:45.738Z,99.90
2019-03-20T03:16:16.153Z,99.90
2019-03-20T03:18:49.305Z,99.90
2019-03-20T03:21:22.939Z,99.90
2019-03-20T03:23:54.331Z,99.90
2019-03-20T03:26:25.574Z,99.90
2019-03-20T03:28:58.549Z,99.90
2019-03-20T03:31:29.342Z,99.90
2019-03-20T03:34:00.345Z,99.90
2019-03-20T03:36:29.225Z,99.90
2019-03-20T03:39:07.944Z,99.90
2019-03-20T03:41:37.530Z,99.90
2019-03-20T03:44:08.819Z,99.90
2019-03-20T03:46:39.557Z,99.90
2019-03-20T03:49:11.211Z,99.90
2019-03-20T03:51:41.048Z,99.90
2019-03-20T03:54:14.208Z,99.90
2019-03-20T03:56:45.313Z,99.90
2019-03-20T03:59:26.533Z,99.90
2019-03-20T04:02:05.640Z,99.90
2019-03-20T04:04:36.651Z,99.90
2019-03-20T04:07:24.693Z,99.90
2019-03-20T04:09:53.888Z,99.90
2019-03-20T04:12:24.336Z,99.90
2019-03-20T04:14:54.993Z,99.90
2019-03-20T04:17:26.429Z,99.90
2019-03-20T04:20:07.073Z,99.90
2019-03-20T04:22:38.626Z,99.90
2019-03-20T04:25:09.380Z,99.90
2019-03-20T04:27:39.281Z,99.90
2019-03-20T04:30:11.907Z,99.90
2019-03-20T04:32:41.729Z,99.90
2019-03-20T04:35:14.868Z,99.90
2019-03-20T04:37:46.790Z,99.90
2019-03-20T04:40:16.730Z,99.90
2019-03-20T04:42:48.530Z,99.90
2019-03-20T04:45:19.656Z,99.90
2019-03-20T04:47:50.342Z,99.90
2019-03-20T04:50:25.572Z,99.90
2019-03-20T04:52:56.427Z,99.90
2019-03-20T04:55:28.282Z,99.90
2019-03-20T04:57:57.620Z,99.90
2019-03-20T05:00:26.563Z,99.90
2019-03-20T05:02:55.820Z,99.90
2019-03-20T05:05:28.156Z,99.90
2019-03-20T05:08:05.059Z,99.90
2019-03-20T05:10:37.664Z,99.90
2019-03-20T05:13:07.757Z,99.90
2019-03-20T05:15:38.179Z,99.90
2019-03-20T05:18:09.501Z,99.90
2019-03-20T05:20:41.195Z,99.90
2019-03-20T05:23:11.845Z,99.90
2019-03-20T05:25:41.500Z,99.90
2019-03-20T05:28:10.654Z,99.90
2019-03-20T05:30:40.822Z,99.90
2019-03-20T05:33:12.168Z,99.90
2019-03-20T05:35:46.685Z,99.90
2019-03-20T05:38:21.728Z,99.90
2019-03-20T05:40:56.885Z,99.90
2019-03-20T05:43:28.632Z,99.90
2019-03-20T05:46:00.447Z,99.90
2019-03-20T05:48:33.087Z,99.90
2019-03-20T05:51:02.344Z,99.90
2019-03-20T05:53:32.173Z,99.90
2019-03-20T05:56:03.533Z,99.90
2019-03-20T05:58:33.107Z,99.90
2019-03-20T06:01:05.632Z,99.90
2019-03-20T06:03:38.347Z,99.90
2019-03-20T06:06:08.821Z,99.90
2019-03-20T06:08:38.206Z,99.90
2019-03-20T06:11:09.047Z,99.90
2019-03-20T06:13:39.905Z,99.90
2019-03-20T06:16:09.932Z,99.90
2019-03-20T06:19:01.964Z,99.90
2019-03-20T06:21:42.650Z,99.90
2019-03-20T06:24:12.116Z,99.90
2019-03-20T06:26:42.452Z,99.90
2019-03-20T06:29:13.247Z,99.90
2019-03-20T06:31:44.360Z,99.90
2019-03-20T06:37:05.355Z,99.90
2019-03-20T06:39:34.653Z,99.90
2019-03-20T06:42:05.388Z,99.90
2019-03-20T06:44:34.188Z,99.90
2019-03-20T06:47:03.283Z,99.90
2019-03-20T06:49:33.364Z,99.90
2019-03-20T06:52:06.573Z,99.90
2019-03-20T06:54:43.151Z,99.90
2019-03-20T06:57:13.975Z,99.90
2019-03-20T07:00:32.544Z,99.90
2019-03-20T07:03:04.833Z,99.90
2019-03-20T07:06:35.419Z,99.90
2019-03-20T07:09:23.265Z,99.90
2019-03-20T07:11:52.024Z,99.90
2019-03-20T07:14:24.216Z,99.90
2019-03-20T07:16:54.655Z,99.90
2019-03-20T07:19:23.870Z,99.90
2019-03-20T07:21:53.271Z,99.90
2019-03-20T07:24:22.475Z,99.90
2019-03-20T07:26:52.380Z,99.90
2019-03-20T07:29:25.296Z,99.90
2019-03-20T07:31:54.925Z,99.90
2019-03-20T07:34:23.731Z,99.90
2019-03-20T07:36:58.540Z,99.90
2019-03-20T07:39:28.614Z,99.90
2019-03-20T07:41:57.681Z,99.90
2019-03-20T07:44:28.053Z,99.90
2019-03-20T07:46:57.620Z,99.90
2019-03-20T07:49:28.027Z,99.90
2019-03-20T07:51:59.177Z,99.90
2019-03-20T07:54:30.233Z,99.90
2019-03-20T07:57:04.763Z,99.90
2019-03-20T07:59:38.561Z,99.90
2019-03-20T08:02:11.644Z,99.90
2019-03-20T08:04:43.610Z,99.90
2019-03-20T08:07:16.387Z,99.90
2019-03-20T08:09:49.736Z,99.90
2019-03-20T08:12:20.919Z,99.90
2019-03-20T08:14:52.963Z,99.90
2019-03-20T08:17:22.828Z,99.90
2019-03-20T08:19:54.364Z,99.90
2019-03-20T08:22:39.883Z,99.90
2019-03-20T08:25:09.399Z,99.90
2019-03-20T08:27:39.113Z,99.90
2019-03-20T08:30:13.811Z,99.90
2019-03-20T08:32:44.712Z,99.90
2019-03-20T08:35:14.124Z,99.90
2019-03-20T08:37:47.420Z,99.90
2019-03-20T08:40:16.552Z,99.50
2019-03-20T08:42:48.271Z,99.50
2019-03-20T08:45:17.501Z,98.90
2019-03-20T08:47:51.992Z,98.60
2019-03-20T08:50:21.292Z,99.70
2019-03-20T08:52:55.247Z,96.80
2019-03-20T08:55:24.702Z,97.40
2019-03-20T08:57:54.332Z,95.30
2019-03-20T09:00:26.178Z,93.50
2019-03-20T09:02:55.988Z,96.30
2019-03-20T09:05:26.583Z,93.70
2019-03-20T09:07:56.196Z,91.00
2019-03-20T09:10:27.727Z,88.40
2019-03-20T09:12:57.632Z,90.80
2019-03-20T09:15:29.265Z,89.90
2019-03-20T09:17:59.474Z,86.80
2019-03-20T09:20:28.664Z,88.40
2019-03-20T09:23:02.404Z,85.10
2019-03-20T09:25:35.207Z,82.90
2019-03-20T09:28:04.948Z,79.70
2019-03-20T09:30:35.074Z,80.10
2019-03-20T09:33:04.387Z,77.20
2019-03-20T09:35:33.638Z,78.20
2019-03-20T09:38:11.579Z,72.10
2019-03-20T09:40:48.415Z,73.70
2019-03-20T09:43:20.887Z,73.40
2019-03-20T09:45:49.883Z,74.60
2019-03-20T09:48:20.456Z,72.30
2019-03-20T09:50:51.534Z,70.60
2019-03-20T09:53:25.667Z,69.10
2019-03-20T09:55:57.190Z,70.70
2019-03-20T09:58:27.693Z,68.30
2019-03-20T10:00:57.715Z,67.80
2019-03-20T10:03:28.473Z,66.00
2019-03-20T10:05:58.044Z,65.10
2019-03-20T10:08:27.603Z,63.40
2019-03-20T10:10:57.772Z,63.90
2019-03-20T10:13:28.685Z,64.60
2019-03-20T10:16:02.663Z,68.70
2019-03-20T10:18:34.343Z,68.20
2019-03-20T10:21:05.340Z,66.40
2019-03-20T10:23:36.384Z,66.70
2019-03-20T10:26:05.947Z,68.00
2019-03-20T10:28:35.088Z,66.80
2019-03-20T10:31:06.665Z,72.30
2019-03-20T10:33:37.140Z,74.90
2019-03-20T10:36:10.055Z,75.00
2019-03-20T10:38:40.798Z,83.60
2019-03-20T10:41:10.601Z,84.10
2019-03-20T10:43:40.409Z,83.20
2019-03-20T10:46:09.944Z,85.00
2019-03-20T10:48:41.391Z,84.50
2019-03-20T10:51:16.133Z,82.60
2019-03-20T10:53:49.012Z,84.50
2019-03-20T10:56:21.105Z,81.50
2019-03-20T10:58:54.564Z,80.80
2019-03-20T11:01:26.548Z,81.90
2019-03-20T11:03:56.112Z,81.40
2019-03-20T11:06:28.754Z,80.80
2019-03-20T11:09:01.539Z,82.60
2019-03-20T11:11:33.305Z,86.70
2019-03-20T11:14:17.339Z,86.20
2019-03-20T11:16:46.615Z,85.70
2019-03-20T11:19:16.473Z,89.10
2019-03-20T11:21:47.601Z,88.20
2019-03-20T11:24:20.338Z,87.30
2019-03-20T11:26:49.589Z,85.90
2019-03-20T11:29:21.791Z,85.20
2019-03-20T11:31:54.771Z,86.90
2019-03-20T11:34:27.008Z,85.80
2019-03-20T11:37:00.687Z,88.10
2019-03-20T11:39:31.132Z,87.90
2019-03-20T11:42:02.805Z,87.40
2019-03-20T11:44:34.988Z,85.90
2019-03-20T11:47:06.528Z,89.90
2019-03-20T11:49:36.640Z,87.10
2019-03-20T11:52:06.467Z,90.40
2019-03-20T11:54:36.208Z,90.90
2019-03-20T11:57:05.106Z,88.50
2019-03-20T11:59:38.777Z,89.90
2019-03-20T12:02:08.260Z,90.70
2019-03-20T12:04:45.548Z,90.10
2019-03-20T12:07:15.257Z,91.80
2019-03-20T12:09:46.229Z,92.10
2019-03-20T12:12:16.951Z,84.50
2019-03-20T12:14:52.079Z,84.50
2019-03-20T12:17:21.980Z,85.00
2019-03-20T12:19:51.240Z,88.00
2019-03-20T12:22:21.944Z,90.10
2019-03-20T12:24:51.489Z,92.30
2019-03-20T12:27:21.751Z,92.20
2019-03-20T12:29:51.746Z,92.40
2019-03-20T12:32:24.920Z,91.70
2019-03-20T12:34:55.449Z,92.20
2019-03-20T12:37:27.264Z,91.20
2019-03-20T12:40:00.326Z,91.10
2019-03-20T12:42:32.412Z,92.40
2019-03-20T12:45:01.549Z,93.40
2019-03-20T12:47:34.835Z,93.20
2019-03-20T12:50:07.631Z,92.20
2019-03-20T12:52:38.407Z,93.60
2019-03-20T12:55:09.919Z,94.90
2019-03-20T12:57:39.348Z,91.60
2019-03-20T13:00:12.316Z,92.50
2019-03-20T13:02:48.232Z,90.50
2019-03-20T13:05:17.959Z,93.80
2019-03-20T13:07:49.112Z,91.70
2019-03-20T13:10:22.776Z,89.30
2019-03-20T13:12:54.912Z,90.30
2019-03-20T13:15:25.360Z,92.60
2019-03-20T13:17:58.187Z,90.90
2019-03-20T13:20:30.204Z,84.90
2019-03-20T13:23:05.383Z,84.30
2019-03-20T13:25:35.861Z,87.30
2019-03-20T13:28:05.640Z,84.50
2019-03-20T13:30:38.322Z,84.50
2019-03-20T13:33:09.751Z,84.60
2019-03-20T13:35:38.724Z,83.20
2019-03-20T13:38:07.615Z,80.60
2019-03-20T13:40:37.628Z,82.70
2019-03-20T13:43:09.184Z,78.90
2019-03-20T13:45:40.513Z,78.70
2019-03-20T13:48:10.435Z,78.50
2019-03-20T13:50:41.810Z,79.80
2019-03-20T13:53:10.716Z,77.00
2019-03-20T13:55:39.960Z,76.00
2019-03-20T13:58:17.843Z,77.10
2019-03-20T14:00:49.168Z,75.80
2019-03-20T14:03:19.226Z,78.90
2019-03-20T14:05:49.239Z,79.00
2019-03-20T14:08:20.132Z,80.30
2019-03-20T14:10:50.878Z,78.20
2019-03-20T14:13:20.616Z,84.30
2019-03-20T14:15:51.579Z,77.20
2019-03-20T14:18:24.880Z,83.60
2019-03-20T14:20:56.664Z,83.00
2019-03-20T14:23:27.523Z,81.20
2019-03-20T14:25:58.171Z,80.30
2019-03-20T14:28:27.013Z,81.50
2019-03-20T14:30:58.451Z,78.70
2019-03-20T14:33:29.130Z,77.30
2019-03-20T14:36:02.391Z,78.40
2019-03-20T14:38:33.053Z,76.40
2019-03-20T14:41:07.533Z,74.00
2019-03-20T14:43:39.789Z,74.70
2019-03-20T14:46:12.641Z,72.90
2019-03-20T14:48:43.388Z,71.00
2019-03-20T14:51:16.713Z,72.00
2019-03-20T14:53:46.845Z,71.70
2019-03-20T14:56:18.699Z,74.90
2019-03-20T14:58:48.702Z,74.50
2019-03-20T15:01:18.517Z,73.30
2019-03-20T15:03:48.849Z,71.60
2019-03-20T15:06:19.659Z,69.60
2019-03-20T15:08:52.683Z,65.50
2019-03-20T15:11:22.405Z,65.00
2019-03-20T15:13:52.730Z,64.70
2019-03-20T15:16:23.236Z,66.80
2019-03-20T15:18:53.236Z,65.10
2019-03-20T15:21:22.717Z,60.90
2019-03-20T15:23:52.704Z,61.20
2019-03-20T15:26:24.080Z,59.80
2019-03-20T15:28:53.171Z,59.40
2019-03-20T15:31:22.716Z,59.40
2019-03-20T15:33:55.651Z,58.80
2019-03-20T15:36:27.871Z,59.30
2019-03-20T15:39:00.280Z,59.50
2019-03-20T15:41:30.636Z,58.60
2019-03-20T15:44:04.678Z,59.00
2019-03-20T15:46:35.623Z,58.30
2019-03-20T15:49:07.295Z,58.80
2019-03-20T15:51:38.816Z,57.90
2019-03-20T15:54:08.523Z,57.40
2019-03-20T15:56:39.078Z,57.70
2019-03-20T15:59:10.791Z,57.80
2019-03-20T16:01:40.396Z,57.80
2019-03-20T16:04:18.796Z,58.10
2019-03-20T16:06:47.555Z,57.60
2019-03-20T16:09:17.036Z,61.30
2019-03-20T16:11:46.397Z,65.00
2019-03-20T16:14:18.604Z,69.00
2019-03-20T16:16:48.597Z,78.20
2019-03-20T16:19:17.737Z,83.00
2019-03-20T16:21:48.959Z,91.40
2019-03-20T16:24:26.960Z,93.00
2019-03-20T16:26:56.139Z,93.00
2019-03-20T16:29:25.527Z,96.70
2019-03-20T16:31:54.787Z,99.90
2019-03-20T16:34:26.801Z,99.90
2019-03-20T16:36:58.680Z,99.90
2019-03-20T16:39:31.535Z,99.90
2019-03-20T16:42:03.211Z,99.90
2019-03-20T16:44:38.223Z,99.90
2019-03-20T16:47:09.604Z,99.90
2019-03-20T16:49:41.679Z,99.90
2019-03-20T16:52:11.159Z,99.90
2019-03-20T16:54:42.472Z,99.90
2019-03-20T16:57:13.776Z,99.90
2019-03-20T16:59:45.016Z,99.90
2019-03-20T17:02:14.120Z,99.90
2019-03-20T17:04:45.868Z,99.90
2019-03-20T17:07:19.043Z,99.90
2019-03-20T17:09:51.891Z,99.90
2019-03-20T17:12:24.316Z,99.90
2019-03-20T17:14:59.935Z,99.90
2019-03-20T17:17:30.510Z,99.90
2019-03-20T17:20:00.511Z,99.90
2019-03-20T17:22:29.992Z,99.90
2019-03-20T17:24:59.701Z,99.90
2019-03-20T17:27:32.065Z,99.90
2019-03-20T17:30:01.251Z,99.90
2019-03-20T17:32:31.578Z,99.90
2019-03-20T17:35:03.997Z,99.90
2019-03-20T17:37:37.377Z,99.90
2019-03-20T17:42:58.737Z,99.90
2019-03-20T17:45:30.416Z,99.90
2019-03-20T17:48:00.275Z,99.90
2019-03-20T17:50:32.675Z,99.90
2019-03-20T17:53:03.079Z,99.90
2019-03-20T17:55:36.334Z,99.90
2019-03-20T17:58:12.412Z,99.90
2019-03-20T18:00:47.644Z,99.90
2019-03-20T18:03:19.440Z,99.90
2019-03-20T18:05:48.685Z,99.90
2019-03-20T18:08:18.164Z,99.90
2019-03-20T18:10:48.055Z,99.90
2019-03-20T18:13:19.184Z,99.90
2019-03-20T18:15:52.066Z,99.90
2019-03-20T18:18:21.259Z,99.90
2019-03-20T18:20:51.004Z,99.90
2019-03-20T18:23:25.688Z,99.90
2019-03-20T18:25:54.607Z,99.90
2019-03-20T18:28:25.371Z,99.90
2019-03-20T18:30:56.464Z,99.90
2019-03-20T18:33:28.569Z,99.90
2019-03-20T18:35:58.444Z,99.90
2019-03-20T18:38:30.535Z,99.90
2019-03-20T18:41:00.022Z,99.90
2019-03-20T18:43:31.301Z,99.90
2019-03-20T18:46:01.019Z,99.90
2019-03-20T18:48:33.707Z,99.90
2019-03-20T18:51:04.891Z,99.90
2019-03-20T18:53:35.119Z,99.90
2019-03-20T18:56:15.876Z,99.90
2019-03-20T18:58:48.108Z,99.90
2019-03-20T19:01:19.666Z,99.90
2019-03-20T19:04:01.158Z,99.90
2019-03-20T19:06:30.551Z,99.90
2019-03-20T19:09:02.516Z,99.90
2019-03-20T19:11:34.139Z,99.90
2019-03-20T19:14:10.697Z,99.90
2019-03-20T19:16:41.823Z,99.90
2019-03-20T19:19:13.595Z,99.90
2019-03-20T19:21:43.211Z,99.90
2019-03-20T19:24:12.726Z,99.90
2019-03-20T19:26:45.431Z,99.90
2019-03-20T19:29:18.023Z,99.90
2019-03-20T19:31:49.346Z,99.90
2019-03-20T19:34:23.680Z,99.90
2019-03-20T19:36:54.487Z,99.90
2019-03-20T19:39:25.723Z,99.90
2019-03-20T19:41:54.928Z,99.90
2019-03-20T19:44:28.123Z,99.90
2019-03-20T19:46:57.480Z,99.90
2019-03-20T19:49:28.712Z,99.90
2019-03-20T19:52:02.441Z,99.90
2019-03-20T19:54:32.583Z,99.90
2019-03-20T19:57:03.635Z,99.90
2019-03-20T19:59:35.633Z,99.90
2019-03-20T20:02:09.924Z,99.90
2019-03-20T20:04:42.404Z,99.90
2019-03-20T20:07:16.190Z,99.90
2019-03-20T20:09:47.563Z,99.90
2019-03-20T20:12:19.153Z,99.90
2019-03-20T20:14:48.381Z,99.90
2019-03-20T20:17:21.168Z,99.90
2019-03-20T20:19:53.346Z,99.90
2019-03-20T20:22:22.235Z,99.90
2019-03-20T20:24:53.583Z,99.90
2019-03-20T20:27:24.903Z,99.90
2019-03-20T20:29:57.504Z,99.90
2019-03-20T20:32:30.472Z,99.90
2019-03-20T20:35:02.043Z,99.90
2019-03-20T20:37:32.878Z,99.90
2019-03-20T20:40:03.380Z,99.90
2019-03-20T20:42:42.471Z,99.90
2019-03-20T20:45:08.921Z,99.90
2019-03-20T20:47:41.247Z,99.90
2019-03-20T20:50:25.872Z,99.90
2019-03-20T20:52:56.321Z,99.90
2019-03-20T20:55:29.700Z,99.90
2019-03-20T20:58:00.277Z,99.90
2019-03-20T21:00:32.780Z,99.90
2019-03-20T21:03:06.636Z,99.90
2019-03-20T21:05:37.091Z,99.90
2019-03-20T21:08:06.421Z,99.90
2019-03-20T21:10:38.784Z,99.90
2019-03-20T21:13:09.404Z,99.90
2019-03-20T21:15:59.120Z,99.90
2019-03-20T21:19:12.388Z,99.90
2019-03-20T21:22:23.228Z,99.90
2019-03-20T21:24:55.920Z,99.90
2019-03-20T21:28:04.555Z,99.90
2019-03-20T21:31:21.159Z,99.90
2019-03-20T21:34:39.073Z,99.90
2019-03-20T21:37:45.759Z,99.90
2019-03-20T21:40:22.175Z,99.90
2019-03-20T21:43:50.812Z,99.90
2019-03-20T21:46:55.087Z,99.90
2019-03-20T21:49:27.988Z,99.90
2019-03-20T21:52:04.717Z,99.90
2019-03-20T21:55:29.491Z,99.90
2019-03-20T21:58:20.231Z,99.90
2019-03-20T22:01:37.751Z,99.90
2019-03-20T22:04:08.270Z,99.90
2019-03-20T22:07:22.114Z,99.90
2019-03-20T22:10:36.853Z,99.90
2019-03-20T22:13:51.619Z,99.90
2019-03-20T22:17:17.248Z,99.90
2019-03-20T22:20:43.453Z,99.90
2019-03-20T22:24:00.325Z,99.90
2019-03-20T22:27:13.803Z,99.90
2019-03-20T22:29:45.293Z,99.90
2019-03-20T22:32:52.580Z,99.90
2019-03-20T22:35:39.697Z,99.90
2019-03-20T22:38:24.813Z,99.90
2019-03-20T22:41:29.937Z,99.90
2019-03-20T22:44:12.565Z,99.90
2019-03-20T22:47:17.964Z,99.90
2019-03-20T22:50:08.794Z,99.90
2019-03-20T22:53:23.602Z,99.90
2019-03-20T22:56:23.304Z,99.90
2019-03-20T22:58:53.320Z,99.90
2019-03-20T23:01:33.719Z,99.90
2019-03-20T23:04:13.487Z,99.90
2019-03-20T23:06:46.052Z,99.90
2019-03-20T23:09:18.337Z,99.90
2019-03-20T23:11:48.463Z,99.90
2019-03-20T23:14:20.139Z,99.90
2019-03-20T23:16:56.059Z,99.90
2019-03-20T23:19:28.620Z,99.90
2019-03-20T23:22:00.217Z,99.90
2019-03-20T23:24:40.138Z,99.90
2019-03-20T23:27:15.763Z,99.90
2019-03-20T23:29:45.210Z,99.90
2019-03-20T23:32:19.950Z,99.90
2019-03-20T23:34:52.597Z,99.90
2019-03-20T23:37:26.376Z,99.90
2019-03-20T23:39:58.050Z,99.90
2019-03-20T23:42:28.232Z,99.90
2019-03-20T23:44:58.836Z,99.90
2019-03-20T23:47:51.894Z,99.90
2019-03-20T23:50:43.847Z,99.90
2019-03-20T23:53:14.731Z,99.90
2019-03-20T23:55:44.167Z,99.90
2019-03-20T23:58:16.191Z,99.90
